Delmont, New Jersey
Current Conditions -  °F | °C
As of 11:54 AM on Thursday 27 Nov 2014 (Local Time) from KMIV Reporting Station
Broken Clouds Broken Clouds  
Wind Chill: 36°   Ceiling: 6500
Heat Index: 41°   Visibility: 10mi
Dew Point: 32°   Wind: 8mph
Humidity: 70%   Direction: 290°WNW
Pressure: 30.02"   Gusts: NA
Location:  39.21°N, 74.95°W
Report Text: KMIV 271654Z AUTO 29007KT 10SM FEW021 BKN065 05/00 A3002 RMK AO2 SLP164 T00500000
Loading
Personal Weather Stations






























Interactive Weather Map New forecast layout! Learn more

10-Day Weather Forecast

Advertisements
Track Severe Weather on mobile